Time;durP1;ratioP1;P1;durP2;ratioP2;P2;SDS_P1;SDS_P2;PMS_P1;PMS_P2;Temp;Humidity;BMP_temperature;BMP_pressure;BME280_temperature;BME280_humidity;BME280_pressure;Samples;Min_cycle;Max_cycle;Signal;HPM_P1;HPM_P2
2022/10/23 00:01:28;;;;;;;8.30;3.40;;;13.80;99.90;;;;;;5005911;28;20128;-94
2022/10/23 00:04:00;;;;;;;10.85;3.35;;;13.80;99.90;;;;;;5004790;28;20026;-95
2022/10/23 00:06:27;;;;;;;9.65;3.95;;;13.80;99.90;;;;;;5007421;28;20026;-95
2022/10/23 00:08:52;;;;;;;12.25;3.90;;;13.80;99.90;;;;;;5007811;28;20038;-94
2022/10/23 00:11:21;;;;;;;9.88;3.53;;;13.80;99.90;;;;;;5009088;28;20040;-95
2022/10/23 00:13:48;;;;;;;9.25;3.42;;;13.80;99.90;;;;;;5008692;28;20041;-94
2022/10/23 00:16:14;;;;;;;12.73;3.90;;;13.80;99.90;;;;;;5028572;28;20034;-94
2022/10/23 00:18:40;;;;;;;11.88;3.83;;;13.80;99.90;;;;;;4998965;28;20068;-94
2022/10/23 00:21:09;;;;;;;7.95;3.08;;;13.80;99.90;;;;;;4996890;28;20049;-93
2022/10/23 00:23:34;;;;;;;10.55;3.85;;;13.80;99.90;;;;;;4997696;28;20038;-95
2022/10/23 00:26:01;;;;;;;8.98;2.42;;;13.80;99.90;;;;;;4999946;28;20065;-94
2022/10/23 00:28:27;;;;;;;8.73;3.72;;;13.80;99.90;;;;;;5018521;28;20030;-96
2022/10/23 00:30:52;;;;;;;7.97;3.10;;;13.80;99.90;;;;;;4999618;28;20045;-95
2022/10/23 00:33:18;;;;;;;11.55;3.28;;;13.80;99.90;;;;;;5020389;28;20109;-96
2022/10/23 00:35:44;;;;;;;10.23;3.60;;;13.80;99.90;;;;;;5011841;28;20089;-88
2022/10/23 00:38:12;;;;;;;12.73;3.05;;;13.80;99.90;;;;;;5010783;28;20018;-96
2022/10/23 00:40:39;;;;;;;11.57;3.30;;;13.80;99.90;;;;;;5011857;28;20026;-96
2022/10/23 00:43:06;;;;;;;11.65;3.13;;;13.80;99.90;;;;;;5006132;28;20029;-95
2022/10/23 00:45:33;;;;;;;10.85;3.67;;;13.80;99.90;;;;;;5007965;28;20033;-95
2022/10/23 00:48:03;;;;;;;9.60;2.92;;;13.80;99.90;;;;;;5008090;28;20010;-87
2022/10/23 00:50:32;;;;;;;10.52;2.92;;;13.80;99.90;;;;;;5015309;28;20041;-92
2022/10/23 00:53:02;;;;;;;11.00;3.30;;;13.80;99.90;;;;;;5018843;28;20042;-90
2022/10/23 00:55:31;;;;;;;11.50;3.05;;;13.70;99.90;;;;;;5016621;28;20042;-93
2022/10/23 00:57:56;;;;;;;7.30;2.80;;;13.80;99.90;;;;;;5030732;28;20034;-91
2022/10/23 01:00:29;;;;;;;7.10;2.63;;;13.80;99.90;;;;;;5013415;28;20052;-96
2022/10/23 01:02:56;;;;;;;13.10;3.67;;;13.80;99.90;;;;;;5009921;28;20014;-94
2022/10/23 01:05:35;;;;;;;10.25;3.17;;;13.80;99.90;;;;;;5014537;28;20192;-96
2022/10/23 01:08:09;;;;;;;15.15;3.33;;;13.80;99.90;;;;;;5002588;28;20022;-91
2022/10/23 01:10:50;;;;;;;9.82;2.90;;;13.80;99.90;;;;;;5015842;28;20033;-93
2022/10/23 01:13:24;;;;;;;9.18;3.80;;;13.80;99.90;;;;;;5019354;28;20049;-89
2022/10/23 01:15:52;;;;;;;13.23;4.07;;;13.80;99.90;;;;;;5031025;28;20110;-90
2022/10/23 01:18:24;;;;;;;13.90;4.40;;;13.80;99.90;;;;;;5009571;28;20036;-93
2022/10/23 01:20:53;;;;;;;18.70;5.03;;;13.80;99.90;;;;;;5013729;28;20045;-92
2022/10/23 01:23:37;;;;;;;21.52;6.43;;;13.80;99.90;;;;;;5038693;28;20033;-93
2022/10/23 01:26:39;;;;;;;12.35;5.07;;;13.80;99.90;;;;;;5020830;28;20538;-92
2022/10/23 01:29:37;;;;;;;16.23;6.55;;;13.80;99.90;;;;;;5014933;28;20403;-92
2022/10/23 01:32:08;;;;;;;12.98;4.57;;;13.80;99.90;;;;;;4951474;29;20082;-95
2022/10/23 01:35:06;;;;;;;14.90;4.80;;;13.80;99.90;;;;;;4934436;29;20051;-91
2022/10/23 01:37:43;;;;;;;12.00;5.18;;;13.80;99.90;;;;;;4935186;29;20040;-95
2022/10/23 01:40:32;;;;;;;12.10;5.50;;;13.80;99.90;;;;;;4920466;29;20028;-96
2022/10/23 01:43:05;;;;;;;8.57;3.97;;;13.90;99.90;;;;;;4922622;29;20063;-93
2022/10/23 01:45:40;;;;;;;9.43;3.85;;;13.90;99.90;;;;;;4939357;29;20066;-95
2022/10/23 01:48:10;;;;;;;16.23;4.90;;;13.80;99.90;;;;;;4935786;29;20498;-95
2022/10/23 01:50:39;;;;;;;12.73;5.13;;;13.90;99.90;;;;;;4936162;29;20023;-95
2022/10/23 01:53:04;;;;;;;10.35;4.78;;;13.90;99.90;;;;;;4920260;29;20103;-95
2022/10/23 01:55:32;;;;;;;12.10;4.78;;;13.90;99.90;;;;;;4923051;29;20047;-95
2022/10/23 01:58:01;;;;;;;10.55;4.30;;;13.90;99.90;;;;;;4926995;29;20027;-94
2022/10/23 02:00:27;;;;;;;13.73;5.55;;;13.90;99.90;;;;;;4924654;29;20079;-93
2022/10/23 02:02:54;;;;;;;9.65;4.38;;;13.90;99.90;;;;;;4925977;29;20162;-96
2022/10/23 02:05:24;;;;;;;10.63;4.82;;;13.90;99.90;;;;;;4921549;29;20020;-95
2022/10/23 02:07:51;;;;;;;12.43;5.03;;;13.90;99.90;;;;;;4970188;28;20030;-95
2022/10/23 02:10:18;;;;;;;9.55;4.43;;;13.90;99.90;;;;;;4997815;28;20029;-95
2022/10/23 02:13:01;;;;;;;10.05;5.15;;;13.90;99.90;;;;;;4998191;28;20025;-95
2022/10/23 02:15:37;;;;;;;12.88;5.22;;;13.90;99.90;;;;;;5001193;28;20038;-95
2022/10/23 02:18:12;;;;;;;14.27;5.03;;;13.90;99.90;;;;;;4998679;28;20033;-95
2022/10/23 02:20:43;;;;;;;10.52;4.22;;;13.90;99.90;;;;;;5022752;28;20040;-95
2022/10/23 02:23:27;;;;;;;12.43;5.93;;;13.90;99.90;;;;;;5000004;28;20046;-95
2022/10/23 02:25:58;;;;;;;12.60;4.70;;;13.90;99.90;;;;;;4996943;28;20025;-95
2022/10/23 02:28:37;;;;;;;14.52;5.90;;;13.90;99.90;;;;;;5010658;28;20089;-91
2022/10/23 02:31:07;;;;;;;14.93;5.43;;;13.90;99.90;;;;;;5012678;28;20034;-95
2022/10/23 02:33:34;;;;;;;12.77;4.73;;;13.90;99.90;;;;;;4999376;28;20054;-94
2022/10/23 02:36:01;;;;;;;12.48;5.70;;;13.90;99.90;;;;;;5000147;28;20475;-96
2022/10/23 02:38:32;;;;;;;9.65;4.63;;;13.90;99.90;;;;;;5002451;28;20025;-94
2022/10/23 02:41:26;;;;;;;16.40;6.80;;;13.90;99.90;;;;;;5011906;28;20034;-93
2022/10/23 02:44:16;;;;;;;16.35;6.63;;;13.90;99.90;;;;;;5005996;28;20132;-96
2022/10/23 02:46:53;;;;;;;14.27;5.47;;;13.90;99.90;;;;;;5026667;28;20026;-95
2022/10/23 02:49:33;;;;;;;13.35;5.75;;;13.90;99.90;;;;;;5000562;28;20042;-96
2022/10/23 02:52:04;;;;;;;;;;;13.90;99.90;;;;;;5019163;28;20601;-96
2022/10/23 02:54:55;;;;;;;18.95;6.68;;;13.90;99.90;;;;;;5005186;28;20016;-95
2022/10/23 02:57:26;;;;;;;;;;;13.90;99.90;;;;;;5008163;28;20022;-94
2022/10/23 03:00:10;;;;;;;20.55;6.65;;;13.90;99.90;;;;;;5006303;28;20554;-95
2022/10/23 03:02:55;;;;;;;19.73;6.05;;;13.90;99.90;;;;;;5013174;28;20610;-95
2022/10/23 03:05:26;;;;;;;20.67;6.13;;;13.90;99.90;;;;;;5009502;28;20018;-95
2022/10/23 03:07:51;;;;;;;13.52;5.63;;;13.90;99.90;;;;;;5008234;28;20030;-96
2022/10/23 03:10:17;;;;;;;13.23;5.13;;;13.90;99.90;;;;;;5014045;28;20053;-95
2022/10/23 03:12:43;;;;;;;21.90;7.68;;;13.90;99.90;;;;;;5013275;28;20076;-95
2022/10/23 03:15:11;;;;;;;19.33;7.13;;;13.80;99.90;;;;;;5013629;28;20492;-95
2022/10/23 03:17:37;;;;;;;15.90;7.65;;;13.90;99.90;;;;;;5015526;28;20017;-95
2022/10/23 03:20:05;;;;;;;20.90;8.32;;;13.90;99.90;;;;;;5017229;28;20085;-89
2022/10/23 03:22:31;;;;;;;24.98;9.07;;;13.80;99.90;;;;;;5017403;28;20040;-95
2022/10/23 03:24:56;;;;;;;18.52;8.43;;;13.80;99.90;;;;;;5011939;28;20026;-95
2022/10/23 03:27:22;;;;;;;19.60;8.75;;;13.80;99.90;;;;;;5002803;28;20083;-95
2022/10/23 03:29:48;;;;;;;22.77;10.23;;;13.80;99.90;;;;;;5001673;28;20026;-96
2022/10/23 03:32:13;;;;;;;15.48;9.63;;;13.80;99.90;;;;;;5005638;28;20033;-93
2022/10/23 03:34:39;;;;;;;20.15;10.10;;;13.80;99.90;;;;;;5000064;28;20041;-96
2022/10/23 03:37:04;;;;;;;23.45;10.02;;;13.80;99.90;;;;;;5008063;28;20067;-92
2022/10/23 03:39:30;;;;;;;20.92;10.52;;;13.80;99.90;;;;;;5007631;28;20018;-95
2022/10/23 03:41:56;;;;;;;16.77;9.48;;;13.80;99.90;;;;;;5002253;28;20022;-95
2022/10/23 03:44:23;;;;;;;22.55;8.18;;;13.80;99.90;;;;;;5006231;28;20018;-96
2022/10/23 03:46:49;;;;;;;25.23;9.93;;;13.80;99.90;;;;;;5001005;28;20034;-94
2022/10/23 03:49:14;;;;;;;21.30;9.75;;;13.70;99.90;;;;;;5000858;28;20088;-95
2022/10/23 03:51:40;;;;;;;18.88;8.90;;;13.70;99.90;;;;;;4997548;28;20030;-94
2022/10/23 03:54:07;;;;;;;26.73;12.45;;;13.70;99.90;;;;;;4996268;28;20646;-95
2022/10/23 03:56:33;;;;;;;25.50;10.10;;;13.70;99.90;;;;;;4997129;28;20050;-94
2022/10/23 03:58:58;;;;;;;26.45;10.73;;;13.70;99.90;;;;;;4998855;28;20033;-95
2022/10/23 04:01:24;;;;;;;21.65;12.27;;;13.70;99.90;;;;;;5031294;28;20030;-94
2022/10/23 04:03:50;;;;;;;25.08;11.65;;;13.70;99.90;;;;;;5016226;28;20117;-96
2022/10/23 04:06:16;;;;;;;22.60;11.48;;;13.70;99.90;;;;;;5014786;28;20441;-96
2022/10/23 04:08:43;;;;;;;18.98;10.93;;;13.70;99.90;;;;;;5015454;28;20053;-95
2022/10/23 04:11:09;;;;;;;25.63;10.77;;;13.60;99.90;;;;;;4996147;28;20026;-94
2022/10/23 04:13:34;;;;;;;21.30;10.68;;;13.70;99.90;;;;;;4995592;28;20026;-96
2022/10/23 04:16:01;;;;;;;26.58;11.55;;;13.70;99.90;;;;;;4996343;28;20033;-94
2022/10/23 04:18:27;;;;;;;27.10;12.20;;;13.70;99.90;;;;;;4998524;28;20030;-96
2022/10/23 04:20:53;;;;;;;23.02;11.05;;;13.60;99.90;;;;;;4979413;28;20054;-96
2022/10/23 04:23:19;;;;;;;18.13;8.38;;;13.70;99.90;;;;;;4995711;28;20022;-95
2022/10/23 04:25:45;;;;;;;28.95;12.95;;;13.60;99.90;;;;;;4995793;28;20029;-94
2022/10/23 04:28:11;;;;;;;31.52;13.25;;;13.70;99.90;;;;;;4995649;28;20042;-95
2022/10/23 04:30:36;;;;;;;29.08;13.48;;;13.60;99.90;;;;;;4996517;28;20030;-95
2022/10/23 04:33:02;;;;;;;33.85;13.27;;;13.60;99.90;;;;;;4995942;28;20022;-95
2022/10/23 04:35:29;;;;;;;27.48;13.13;;;13.60;99.90;;;;;;5010575;28;20034;-95
2022/10/23 04:37:55;;;;;;;28.52;11.88;;;13.60;99.90;;;;;;5011591;28;20483;-94
2022/10/23 04:40:20;;;;;;;26.83;12.88;;;13.60;99.90;;;;;;4994707;28;20030;-94
2022/10/23 04:42:46;;;;;;;25.52;11.45;;;13.60;99.90;;;;;;4994904;28;20025;-94
2022/10/23 04:45:12;;;;;;;29.20;11.20;;;13.60;99.90;;;;;;5014111;28;20526;-95
2022/10/23 04:47:37;;;;;;;26.15;9.82;;;13.60;99.90;;;;;;4999053;28;20104;-95
2022/10/23 04:50:03;;;;;;;28.40;10.10;;;13.60;99.90;;;;;;4999340;28;20415;-95
2022/10/23 04:52:29;;;;;;;24.90;9.52;;;13.60;99.90;;;;;;4998675;28;20038;-96
2022/10/23 04:54:55;;;;;;;16.67;9.10;;;13.60;99.90;;;;;;4998540;28;20084;-94
2022/10/23 04:57:20;;;;;;;21.17;9.05;;;13.60;99.90;;;;;;4998813;28;20029;-93
2022/10/23 04:59:46;;;;;;;23.77;8.93;;;13.60;99.90;;;;;;5000139;28;20033;-95
2022/10/23 05:02:12;;;;;;;24.85;8.80;;;13.60;99.90;;;;;;5000710;28;20368;-92
2022/10/23 05:04:37;;;;;;;18.27;7.35;;;13.60;99.90;;;;;;5008443;28;20432;-94
2022/10/23 05:07:03;;;;;;;19.40;7.75;;;13.60;99.90;;;;;;5006854;28;20030;-95
2022/10/23 05:09:29;;;;;;;13.27;7.53;;;13.50;99.90;;;;;;5015914;28;20109;-95
2022/10/23 05:11:54;;;;;;;21.77;7.47;;;13.50;99.90;;;;;;4998384;28;20088;-95
2022/10/23 05:14:20;;;;;;;21.98;7.57;;;13.50;99.90;;;;;;4998246;28;20034;-95
2022/10/23 05:16:51;;;;;;;13.30;6.72;;;13.50;99.90;;;;;;5015529;28;20029;-95
2022/10/23 05:19:36;;;;;;;13.10;6.82;;;13.50;99.90;;;;;;4998311;28;20494;-94
2022/10/23 05:22:03;;;;;;;15.52;6.15;;;13.40;99.90;;;;;;4997561;28;20026;-94
2022/10/23 05:24:29;;;;;;;11.80;6.25;;;13.40;99.90;;;;;;4995212;28;20029;-94
2022/10/23 05:26:57;;;;;;;11.50;5.47;;;13.40;99.90;;;;;;4998295;28;20029;-96
2022/10/23 05:29:23;;;;;;;18.63;5.55;;;13.30;99.90;;;;;;4998254;28;20018;-95
2022/10/23 05:31:53;;;;;;;17.67;6.85;;;13.30;99.90;;;;;;4999204;28;20025;-95
2022/10/23 05:34:21;;;;;;;15.53;6.80;;;13.20;99.90;;;;;;5003953;28;20093;-91
2022/10/23 05:36:47;;;;;;;25.23;7.50;;;13.30;99.90;;;;;;5010598;28;20029;-94
2022/10/23 05:39:13;;;;;;;12.55;6.55;;;13.20;99.90;;;;;;5008062;28;20036;-94
2022/10/23 05:41:39;;;;;;;16.27;6.47;;;13.20;99.90;;;;;;4998221;28;20446;-94
2022/10/23 05:44:04;;;;;;;14.98;6.38;;;13.20;99.90;;;;;;4998282;28;20479;-95
2022/10/23 05:46:30;;;;;;;12.15;6.15;;;13.20;99.90;;;;;;4998336;28;20088;-94
2022/10/23 05:48:56;;;;;;;20.10;6.45;;;13.20;99.90;;;;;;5015402;28;20042;-94
2022/10/23 05:51:22;;;;;;;18.52;7.13;;;13.20;99.90;;;;;;4998610;28;20057;-93
2022/10/23 05:53:48;;;;;;;19.75;9.57;;;13.20;99.90;;;;;;5000030;28;20396;-94
2022/10/23 05:56:14;;;;;;;22.20;8.43;;;13.10;99.90;;;;;;4999881;28;20045;-94
2022/10/23 05:58:40;;;;;;;22.17;9.48;;;13.10;99.90;;;;;;5000173;28;20460;-96
2022/10/23 06:01:08;;;;;;;26.17;10.90;;;13.10;99.90;;;;;;5000417;28;20061;-95
2022/10/23 06:03:35;;;;;;;18.08;8.63;;;13.10;99.90;;;;;;5002085;28;20454;-95
2022/10/23 06:06:00;;;;;;;21.73;8.95;;;13.10;99.90;;;;;;5002119;28;20029;-93
2022/10/23 06:08:26;;;;;;;19.77;8.77;;;13.20;99.90;;;;;;5002579;28;20049;-96
2022/10/23 06:10:52;;;;;;;20.85;8.52;;;13.10;99.90;;;;;;5003242;28;20104;-95
2022/10/23 06:13:17;;;;;;;18.05;8.30;;;13.10;99.90;;;;;;5002392;28;20022;-96
2022/10/23 06:15:44;;;;;;;24.60;8.82;;;13.10;99.90;;;;;;5013716;28;20041;-96
2022/10/23 06:18:09;;;;;;;17.10;8.75;;;13.20;99.90;;;;;;5015403;28;20017;-93
2022/10/23 06:20:36;;;;;;;20.98;8.50;;;13.20;99.90;;;;;;5018190;28;20171;-95
2022/10/23 06:23:03;;;;;;;20.98;9.10;;;13.10;99.90;;;;;;5013544;28;20025;-95
2022/10/23 06:25:29;;;;;;;28.85;10.10;;;13.20;99.90;;;;;;5018660;28;20025;-95
2022/10/23 06:27:54;;;;;;;19.55;10.80;;;13.10;99.90;;;;;;5013513;28;20026;-96
2022/10/23 06:30:20;;;;;;;18.05;8.55;;;13.20;99.90;;;;;;5010036;28;20026;-93
2022/10/23 06:32:46;;;;;;;20.45;10.35;;;13.20;99.90;;;;;;5019265;28;20082;-94
2022/10/23 06:35:12;;;;;;;24.98;10.73;;;13.20;99.90;;;;;;5008680;28;20105;-94
2022/10/23 06:37:38;;;;;;;24.50;11.73;;;13.20;99.90;;;;;;4998850;28;20026;-95
2022/10/23 06:40:05;;;;;;;23.42;11.10;;;13.20;99.90;;;;;;4999515;28;20033;-93
2022/10/23 06:42:30;;;;;;;38.58;14.05;;;13.20;99.90;;;;;;4998600;28;20471;-92
2022/10/23 06:44:56;;;;;;;28.10;12.07;;;13.20;99.90;;;;;;5000817;28;20036;-95
2022/10/23 06:47:22;;;;;;;39.22;14.30;;;13.20;99.90;;;;;;5005361;28;20113;-95
2022/10/23 06:49:48;;;;;;;25.50;11.70;;;13.20;99.90;;;;;;5011288;28;20049;-94
2022/10/23 06:52:17;;;;;;;39.30;13.55;;;13.20;99.90;;;;;;5014550;28;20054;-95
2022/10/23 06:54:42;;;;;;;39.25;14.85;;;13.20;99.90;;;;;;4995988;28;20033;-94
2022/10/23 06:57:08;;;;;;;39.15;14.23;;;13.20;99.90;;;;;;5013731;28;20032;-94
2022/10/23 06:59:34;;;;;;;37.15;14.90;;;13.20;99.90;;;;;;5013263;28;20480;-93
2022/10/23 07:01:59;;;;;;;47.10;15.23;;;13.20;99.90;;;;;;4995559;28;20026;-94
2022/10/23 07:04:25;;;;;;;35.92;13.70;;;13.20;99.90;;;;;;4997177;28;20402;-95
2022/10/23 07:06:54;;;;;;;39.22;16.17;;;13.20;99.90;;;;;;4995796;28;20037;-93
2022/10/23 07:09:20;;;;;;;37.95;14.80;;;13.20;99.90;;;;;;4997067;28;20029;-93
2022/10/23 07:11:46;;;;;;;31.75;12.23;;;13.20;99.90;;;;;;5015715;28;20021;-94
2022/10/23 07:14:11;;;;;;;37.17;15.07;;;13.20;99.90;;;;;;4998943;28;20048;-95
2022/10/23 07:16:37;;;;;;;41.70;15.25;;;13.20;99.90;;;;;;4999916;28;20032;-94
2022/10/23 07:19:03;;;;;;;37.85;14.55;;;13.20;99.90;;;;;;4996249;28;20057;-94
2022/10/23 07:21:34;;;;;;;39.90;14.80;;;13.20;99.90;;;;;;4997984;28;20084;-94
2022/10/23 07:24:01;;;;;;;36.63;13.43;;;13.20;99.90;;;;;;5001562;28;20037;-95
2022/10/23 07:26:29;;;;;;;37.00;15.52;;;13.20;99.90;;;;;;5001225;28;20045;-94
2022/10/23 07:28:58;;;;;;;34.55;12.43;;;13.20;99.90;;;;;;4999112;28;20026;-92
2022/10/23 07:31:25;;;;;;;36.92;12.65;;;13.20;99.90;;;;;;5007505;28;20018;-95
2022/10/23 07:33:51;;;;;;;22.08;9.85;;;13.10;99.90;;;;;;5001109;28;20049;-96
2022/10/23 07:36:18;;;;;;;22.25;10.10;;;13.20;99.90;;;;;;4997049;28;20040;-94
2022/10/23 07:38:44;;;;;;;31.67;14.05;;;13.20;99.90;;;;;;4996306;28;20538;-95
2022/10/23 07:41:10;;;;;;;32.70;13.55;;;13.20;99.90;;;;;;5003878;28;20037;-95
2022/10/23 07:43:36;;;;;;;25.85;11.57;;;13.20;99.90;;;;;;4996032;28;20436;-93
2022/10/23 07:46:02;;;;;;;17.85;9.18;;;13.20;99.90;;;;;;4994906;28;20026;-94
2022/10/23 07:48:27;;;;;;;22.10;10.48;;;13.20;99.90;;;;;;4995984;28;20029;-92
2022/10/23 07:50:59;;;;;;;18.67;8.30;;;13.20;99.90;;;;;;5012255;28;20033;-92
2022/10/23 07:53:25;;;;;;;11.77;3.97;;;13.20;99.90;;;;;;4995162;28;20052;-92
2022/10/23 07:55:58;;;;;;;12.32;5.72;;;13.20;99.90;;;;;;4994546;28;20046;-92
2022/10/23 07:58:25;;;;;;;9.43;5.18;;;13.20;99.90;;;;;;5010537;28;20122;-94
2022/10/23 08:00:57;;;;;;;11.70;6.13;;;13.20;99.90;;;;;;4995717;28;20057;-94
2022/10/23 08:03:28;;;;;;;14.82;6.90;;;13.20;99.90;;;;;;4994698;28;20041;-93
2022/10/23 08:05:55;;;;;;;13.55;7.00;;;13.30;99.90;;;;;;4992655;28;20029;-93
2022/10/23 08:08:22;;;;;;;13.02;7.75;;;13.30;99.90;;;;;;4993754;28;20026;-91
2022/10/23 08:10:49;;;;;;;13.13;8.20;;;13.40;99.90;;;;;;4996427;28;20026;-93
2022/10/23 08:13:15;;;;;;;14.57;8.27;;;13.40;99.90;;;;;;4993162;28;20059;-93
2022/10/23 08:15:42;;;;;;;13.18;7.22;;;13.40;99.90;;;;;;4991815;28;20034;-92
2022/10/23 08:18:09;;;;;;;14.73;7.57;;;13.30;99.90;;;;;;4995612;28;20018;-92
2022/10/23 08:20:42;;;;;;;15.93;7.53;;;13.30;99.90;;;;;;4998196;28;20767;-90
2022/10/23 08:23:11;;;;;;;14.05;8.18;;;13.40;99.90;;;;;;4998672;28;20022;-91
2022/10/23 08:25:37;;;;;;;11.95;6.97;;;13.40;99.90;;;;;;5001324;28;20026;-91
2022/10/23 08:28:03;;;;;;;11.00;6.85;;;13.30;99.90;;;;;;5002848;28;20054;-91
2022/10/23 08:30:29;;;;;;;11.55;6.55;;;13.30;99.90;;;;;;5008335;28;20030;-91
2022/10/23 08:32:54;;;;;;;8.25;5.38;;;13.40;99.90;;;;;;5014692;28;20894;-92
2022/10/23 08:35:20;;;;;;;8.48;5.68;;;13.40;99.90;;;;;;5005506;28;20040;-92
2022/10/23 08:37:46;;;;;;;11.25;5.50;;;13.30;99.90;;;;;;5000166;28;20538;-93
2022/10/23 08:40:21;;;;;;;10.60;5.20;;;13.40;99.90;;;;;;4998059;28;20026;-92
2022/10/23 08:43:09;;;;;;;9.13;5.15;;;13.40;99.90;;;;;;4997602;28;20053;-92
2022/10/23 08:45:52;;;;;;;7.00;4.57;;;13.30;99.90;;;;;;5015453;28;20022;-93
2022/10/23 08:48:33;;;;;;;8.75;4.70;;;13.30;99.90;;;;;;4980132;28;20074;-93
2022/10/23 08:51:14;;;;;;;;;;;13.30;99.90;;;;;;4980795;28;20026;-93
2022/10/23 08:54:15;;;;;;;7.38;4.90;;;13.30;99.90;;;;;;4996171;28;19918;-93
2022/10/23 08:56:43;;;;;;;7.63;4.45;;;13.30;99.90;;;;;;4990538;28;20038;-92
2022/10/23 08:59:18;;;;;;;12.85;5.53;;;13.30;99.90;;;;;;4999870;28;20022;-93
2022/10/23 09:02:07;;;;;;;9.25;4.38;;;13.20;99.90;;;;;;4999881;28;20030;-92
2022/10/23 09:04:33;;;;;;;7.20;4.18;;;13.20;99.90;;;;;;4999307;28;20034;-93
2022/10/23 09:07:05;;;;;;;9.13;4.28;;;13.20;99.90;;;;;;4997721;28;20026;-94
2022/10/23 09:09:41;;;;;;;6.05;3.72;;;13.20;99.90;;;;;;5015497;28;20109;-92
2022/10/23 09:12:16;;;;;;;4.80;2.90;;;13.20;99.90;;;;;;4989944;28;20087;-94
2022/10/23 09:15:16;;;;;;;2.58;2.00;;;13.20;99.90;;;;;;5001496;28;20026;-93
2022/10/23 09:17:43;;;;;;;4.65;1.90;;;13.20;99.90;;;;;;4921867;29;20478;-93
2022/10/23 09:20:24;;;;;;;2.00;1.50;;;13.20;99.90;;;;;;4920392;29;20039;-92
2022/10/23 09:22:54;;;;;;;2.28;1.90;;;13.20;99.90;;;;;;4900992;29;20478;-92
2022/10/23 09:25:29;;;;;;;2.67;1.52;;;13.20;99.90;;;;;;4901623;29;20096;-91
2022/10/23 09:27:58;;;;;;;2.17;1.83;;;13.20;99.90;;;;;;4900478;29;20601;-92
2022/10/23 09:30:39;;;;;;;2.70;2.03;;;13.20;99.90;;;;;;4899238;29;20478;-93
2022/10/23 09:33:18;;;;;;;2.67;1.77;;;13.20;99.90;;;;;;4902569;29;20098;-93
2022/10/23 09:36:04;;;;;;;3.15;2.00;;;13.20;99.90;;;;;;4911256;29;20048;-93
2022/10/23 09:38:49;;;;;;;3.80;1.70;;;13.20;99.90;;;;;;4901222;29;20040;-94
2022/10/23 09:41:26;;;;;;;3.40;1.77;;;13.20;99.90;;;;;;4895293;29;20036;-92
2022/10/23 09:44:18;;;;;;;4.18;1.70;;;13.20;99.90;;;;;;4916593;29;20040;-93
2022/10/23 09:46:47;;;;;;;2.35;1.80;;;13.20;99.90;;;;;;4901014;29;20028;-93
2022/10/23 09:49:20;;;;;;;1.75;1.35;;;13.30;99.90;;;;;;4901628;29;20108;-93
2022/10/23 09:51:53;;;;;;;1.25;1.15;;;13.20;99.90;;;;;;4902212;29;20068;-92
2022/10/23 09:54:22;;;;;;;2.00;1.00;;;13.30;99.90;;;;;;4953426;28;20041;-92
2022/10/23 09:56:49;;;;;;;4.93;2.53;;;13.30;99.90;;;;;;4997898;28;20029;-93
2022/10/23 09:59:41;;;;;;;1.15;0.98;;;13.20;99.90;;;;;;4996336;28;20029;-92
2022/10/23 10:02:40;;;;;;;0.82;0.82;;;13.20;99.90;;;;;;4992523;28;20030;-94
2022/10/23 10:05:26;;;;;;;0.95;0.68;;;13.20;99.90;;;;;;4955160;28;20065;-93
2022/10/23 10:07:58;;;;;;;1.10;0.50;;;13.20;99.90;;;;;;5001478;28;20038;-95
2022/10/23 10:10:27;;;;;;;0.73;0.63;;;13.20;99.90;;;;;;5005820;28;20029;-94
2022/10/23 10:12:57;;;;;;;0.47;0.47;;;13.20;99.90;;;;;;5014297;28;20097;-95
2022/10/23 10:15:51;;;;;;;0.40;0.40;;;13.20;99.90;;;;;;5014235;28;20022;-95
2022/10/23 10:18:31;;;;;;;0.65;0.40;;;13.20;99.90;;;;;;5008285;28;20185;-94
2022/10/23 10:21:06;;;;;;;0.50;0.50;;;13.20;99.90;;;;;;5014227;28;20056;-95
2022/10/23 10:23:49;;;;;;;1.65;0.47;;;13.30;99.90;;;;;;5016790;28;20040;-95
2022/10/23 10:26:38;;;;;;;2.83;0.20;;;13.30;99.90;;;;;;5006915;28;20089;-94
2022/10/23 10:29:36;;;;;;;0.47;0.47;;;13.30;99.90;;;;;;4996245;28;20022;-95
2022/10/23 10:32:23;;;;;;;0.93;0.50;;;13.20;99.90;;;;;;4920001;29;20576;-93
2022/10/23 10:35:10;;;;;;;3.08;0.68;;;13.30;99.90;;;;;;4928369;29;20553;-95
2022/10/23 10:37:48;;;;;;;2.05;0.73;;;13.30;99.90;;;;;;4927524;29;20035;-95
2022/10/23 10:40:40;;;;;;;2.40;0.60;;;13.30;99.90;;;;;;4932638;29;20034;-93
2022/10/23 10:43:28;;;;;;;1.55;0.70;;;13.30;99.90;;;;;;4930601;29;20036;-95
2022/10/23 10:46:05;;;;;;;1.20;0.60;;;13.30;99.90;;;;;;4944057;29;20028;-96
2022/10/23 10:48:52;;;;;;;0.80;0.80;;;13.30;99.90;;;;;;4924989;29;20036;-95
2022/10/23 10:51:34;;;;;;;1.77;0.90;;;13.30;99.90;;;;;;4922817;29;20179;-94
2022/10/23 10:54:03;;;;;;;1.08;0.98;;;13.30;99.90;;;;;;4920087;29;20160;-94
2022/10/23 10:56:32;;;;;;;1.58;1.00;;;13.40;99.90;;;;;;4943726;29;20040;-96
2022/10/23 10:59:10;;;;;;;1.58;1.10;;;13.40;99.90;;;;;;4936347;29;20035;-95
2022/10/23 11:01:44;;;;;;;2.25;1.50;;;13.40;99.90;;;;;;4940788;29;20039;-93
2022/10/23 11:04:43;;;;;;;2.60;1.65;;;13.40;99.90;;;;;;4955829;29;20043;-93
2022/10/23 11:07:14;;;;;;;3.15;1.33;;;13.50;99.90;;;;;;4962664;28;20026;-95
2022/10/23 11:09:41;;;;;;;3.83;1.52;;;13.50;99.90;;;;;;5018525;28;20034;-94
2022/10/23 11:12:18;;;;;;;3.38;1.50;;;13.60;99.90;;;;;;5014290;28;20048;-95
2022/10/23 11:14:44;;;;;;;1.75;1.30;;;13.60;99.90;;;;;;5017571;28;20049;-95
2022/10/23 11:17:19;;;;;;;2.90;1.70;;;13.70;99.90;;;;;;5014702;28;20049;-94
2022/10/23 11:20:21;;;;;;;3.40;1.50;;;13.70;99.90;;;;;;5007346;28;20026;-95
2022/10/23 11:22:57;;;;;;;1.88;1.58;;;13.80;99.90;;;;;;5008672;28;20109;-94
2022/10/23 11:26:05;;;;;;;3.47;2.10;;;13.90;99.90;;;;;;5014759;28;20482;-94
2022/10/23 11:28:44;;;;;;;2.70;2.25;;;13.90;99.90;;;;;;5007298;28;20038;-94
2022/10/23 11:31:22;;;;;;;2.75;1.80;;;13.90;99.90;;;;;;5014867;28;20049;-95
2022/10/23 11:34:16;;;;;;;2.92;1.80;;;13.90;99.90;;;;;;5013499;28;20026;-94
2022/10/23 11:37:00;;;;;;;3.17;1.80;;;13.90;99.90;;;;;;5018058;28;20034;-96
2022/10/23 11:39:26;;;;;;;4.20;2.78;;;13.90;99.90;;;;;;5016899;28;20026;-95
2022/10/23 11:42:02;;;;;;;6.13;2.70;;;13.90;99.90;;;;;;5017834;28;20090;-93
2022/10/23 11:44:40;;;;;;;3.33;2.00;;;13.90;99.90;;;;;;5018680;28;20025;-95
2022/10/23 11:47:33;;;;;;;2.97;2.15;;;14.00;99.90;;;;;;5016418;28;20033;-96
2022/10/23 11:50:07;;;;;;;2.83;2.38;;;14.00;99.90;;;;;;5017578;28;20026;-95
2022/10/23 11:52:53;;;;;;;4.07;2.38;;;14.00;99.90;;;;;;5014386;28;20126;-96
2022/10/23 11:55:23;;;;;;;2.65;2.28;;;14.00;99.90;;;;;;5014180;28;20149;-96
2022/10/23 11:58:04;;;;;;;2.60;2.40;;;14.10;99.90;;;;;;5017414;28;20022;-95
2022/10/23 12:00:32;;;;;;;4.05;2.40;;;14.10;99.90;;;;;;5020900;28;20437;-95
2022/10/23 12:02:59;;;;;;;3.25;1.95;;;14.10;99.90;;;;;;5016818;28;20076;-96
2022/10/23 12:05:30;;;;;;;2.85;2.13;;;14.10;99.90;;;;;;5011587;28;20033;-95
2022/10/23 12:07:58;;;;;;;2.30;2.10;;;14.10;99.90;;;;;;5009494;28;20030;-95
2022/10/23 12:10:35;;;;;;;3.10;2.00;;;14.10;99.90;;;;;;5008278;28;20064;-96
2022/10/23 12:13:04;;;;;;;2.17;1.90;;;14.10;99.90;;;;;;5004085;28;20046;-95
2022/10/23 12:15:33;;;;;;;2.58;1.85;;;14.10;99.90;;;;;;5011770;28;20060;-95
2022/10/23 12:18:28;;;;;;;3.75;1.90;;;14.10;99.90;;;;;;5012210;28;20029;-91
2022/10/23 12:20:57;;;;;;;2.38;2.13;;;14.10;99.90;;;;;;5004259;28;20054;-94
2022/10/23 12:23:57;;;;;;;3.05;2.38;;;14.10;99.90;;;;;;5015193;28;20030;-95
2022/10/23 12:26:49;;;;;;;2.15;1.75;;;14.10;99.90;;;;;;5014052;28;20033;-95
2022/10/23 12:29:24;;;;;;;2.83;1.42;;;14.10;99.90;;;;;;5018152;28;20094;-95
2022/10/23 12:32:11;;;;;;;2.28;1.92;;;14.10;99.90;;;;;;5016387;28;20041;-94
2022/10/23 12:34:46;;;;;;;1.63;1.52;;;14.20;99.90;;;;;;5017729;28;20053;-94
2022/10/23 12:37:45;;;;;;;2.42;1.98;;;14.20;99.90;;;;;;5018032;28;20037;-94
2022/10/23 12:40:11;;;;;;;1.95;1.75;;;14.20;99.90;;;;;;5017949;28;20026;-94
2022/10/23 12:42:37;;;;;;;4.68;1.80;;;14.30;99.90;;;;;;5007348;28;20032;-94
2022/10/23 12:45:37;;;;;;;2.50;1.60;;;14.40;99.90;;;;;;4999103;28;20034;-94
2022/10/23 12:48:03;;;;;;;3.37;1.60;;;14.40;99.90;;;;;;4989659;28;20049;-95
2022/10/23 12:50:31;;;;;;;1.80;1.60;;;14.60;99.90;;;;;;5008634;28;20261;-94
2022/10/23 12:53:06;;;;;;;1.63;1.50;;;14.60;99.90;;;;;;4997822;28;20052;-94
2022/10/23 12:55:57;;;;;;;1.98;1.60;;;14.60;99.90;;;;;;4979086;28;20638;-94
2022/10/23 12:58:25;;;;;;;3.88;1.83;;;14.60;99.90;;;;;;4976481;28;20033;-93
2022/10/23 13:00:56;;;;;;;2.55;1.50;;;14.70;99.90;;;;;;4974901;28;20097;-95
2022/10/23 13:03:24;;;;;;;2.90;1.90;;;14.70;99.90;;;;;;4976420;28;20054;-95
2022/10/23 13:05:53;;;;;;;4.45;2.00;;;14.70;99.90;;;;;;4991830;28;20027;-95